<?xml version="1.0" encoding="UTF-8" standalone="no" ?>
<gpx xmlns="http://www.topografix.com/GPX/1/1" xmlns:xsi="http://www.w3.org/2001/XMLSchema-instance" xsi:schemaLocation="http://www.topografix.com/GPX/1/1 http://www.topografix.com/GPX/1/1/gpx.xsd" version="1.1" creator="VisuGPX - https://www.visugpx.com">
  <metadata>
    <name>Fontainebleau, la Grande Montagne</name>
    <desc><![CDATA[Forêt de Fontainebleau. Tour de la Grande Montagne. Parcours très facile.]]></desc>
  </metadata>
  <trk>
    <name><![CDATA[20180218172333-qZi59]]></name>
    <trkseg>
      <trkpt lat="48.37035" lon="2.5615">
        <ele>122</ele>
        <time>2018-02-18T13:24:14Z</time>
      </trkpt>
      <trkpt lat="48.37031" lon="2.5615">
        <ele>122</ele>
        <time>2018-02-18T13:24:30Z</time>
      </trkpt>
      <trkpt lat="48.37028" lon="2.56142">
        <ele>122</ele>
        <time>2018-02-18T13:24:46Z</time>
      </trkpt>
      <trkpt lat="48.37024" lon="2.56142">
        <ele>122</ele>
        <time>2018-02-18T13:24:58Z</time>
      </trkpt>
      <trkpt lat="48.37017" lon="2.56145">
        <ele>122</ele>
        <time>2018-02-18T13:25:14Z</time>
      </trkpt>
      <trkpt lat="48.37012" lon="2.5614">
        <ele>122</ele>
        <time>2018-02-18T13:25:28Z</time>
      </trkpt>
      <trkpt lat="48.37009" lon="2.56138">
        <ele>122</ele>
        <time>2018-02-18T13:25:41Z</time>
      </trkpt>
      <trkpt lat="48.37011" lon="2.5613">
        <ele>122</ele>
        <time>2018-02-18T13:25:56Z</time>
      </trkpt>
      <trkpt lat="48.37004" lon="2.56116">
        <ele>122</ele>
        <time>2018-02-18T13:26:13Z</time>
      </trkpt>
      <trkpt lat="48.36994" lon="2.56113">
        <ele>123</ele>
        <time>2018-02-18T13:26:28Z</time>
      </trkpt>
      <trkpt lat="48.36982" lon="2.56111">
        <ele>123</ele>
        <time>2018-02-18T13:26:48Z</time>
      </trkpt>
      <trkpt lat="48.36978" lon="2.56111">
        <ele>123</ele>
        <time>2018-02-18T13:27:00Z</time>
      </trkpt>
      <trkpt lat="48.3697" lon="2.56116">
        <ele>123</ele>
        <time>2018-02-18T13:27:17Z</time>
      </trkpt>
      <trkpt lat="48.36964" lon="2.56108">
        <ele>123</ele>
        <time>2018-02-18T13:27:31Z</time>
      </trkpt>
      <trkpt lat="48.36955" lon="2.56101">
        <ele>124</ele>
        <time>2018-02-18T13:27:47Z</time>
      </trkpt>
      <trkpt lat="48.36945" lon="2.56101">
        <ele>124</ele>
        <time>2018-02-18T13:28:07Z</time>
      </trkpt>
      <trkpt lat="48.36936" lon="2.56093">
        <ele>124</ele>
        <time>2018-02-18T13:28:23Z</time>
      </trkpt>
      <trkpt lat="48.36928" lon="2.56081">
        <ele>125</ele>
        <time>2018-02-18T13:28:39Z</time>
      </trkpt>
      <trkpt lat="48.36922" lon="2.5607">
        <ele>125</ele>
        <time>2018-02-18T13:28:56Z</time>
      </trkpt>
      <trkpt lat="48.36911" lon="2.56061">
        <ele>126</ele>
        <time>2018-02-18T13:29:11Z</time>
      </trkpt>
      <trkpt lat="48.36902" lon="2.56054">
        <ele>126</ele>
        <time>2018-02-18T13:29:26Z</time>
      </trkpt>
      <trkpt lat="48.36895" lon="2.5604">
        <ele>126</ele>
        <time>2018-02-18T13:29:42Z</time>
      </trkpt>
      <trkpt lat="48.36893" lon="2.56037">
        <ele>126</ele>
        <time>2018-02-18T13:29:45Z</time>
      </trkpt>
      <trkpt lat="48.3689" lon="2.56017">
        <ele>126</ele>
        <time>2018-02-18T13:30:01Z</time>
      </trkpt>
      <trkpt lat="48.36885" lon="2.56009">
        <ele>126</ele>
        <time>2018-02-18T13:30:20Z</time>
      </trkpt>
      <trkpt lat="48.36885" lon="2.55991">
        <ele>125</ele>
        <time>2018-02-18T13:30:37Z</time>
      </trkpt>
      <trkpt lat="48.36885" lon="2.55979">
        <ele>125</ele>
        <time>2018-02-18T13:30:52Z</time>
      </trkpt>
      <trkpt lat="48.36885" lon="2.55965">
        <ele>125</ele>
        <time>2018-02-18T13:31:08Z</time>
      </trkpt>
      <trkpt lat="48.36883" lon="2.5595">
        <ele>125</ele>
        <time>2018-02-18T13:31:23Z</time>
      </trkpt>
      <trkpt lat="48.3688" lon="2.55931">
        <ele>125</ele>
        <time>2018-02-18T13:31:41Z</time>
      </trkpt>
      <trkpt lat="48.36878" lon="2.55916">
        <ele>125</ele>
        <time>2018-02-18T13:31:54Z</time>
      </trkpt>
      <trkpt lat="48.36879" lon="2.55899">
        <ele>125</ele>
        <time>2018-02-18T13:32:08Z</time>
      </trkpt>
      <trkpt lat="48.3688" lon="2.55879">
        <ele>124</ele>
        <time>2018-02-18T13:32:24Z</time>
      </trkpt>
      <trkpt lat="48.36881" lon="2.55864">
        <ele>124</ele>
        <time>2018-02-18T13:32:39Z</time>
      </trkpt>
      <trkpt lat="48.36878" lon="2.55847">
        <ele>124</ele>
        <time>2018-02-18T13:32:52Z</time>
      </trkpt>
      <trkpt lat="48.36873" lon="2.55832">
        <ele>123</ele>
        <time>2018-02-18T13:33:08Z</time>
      </trkpt>
      <trkpt lat="48.36864" lon="2.55819">
        <ele>123</ele>
        <time>2018-02-18T13:33:25Z</time>
      </trkpt>
      <trkpt lat="48.36857" lon="2.55807">
        <ele>122</ele>
        <time>2018-02-18T13:33:39Z</time>
      </trkpt>
      <trkpt lat="48.36849" lon="2.55793">
        <ele>122</ele>
        <time>2018-02-18T13:33:54Z</time>
      </trkpt>
      <trkpt lat="48.36842" lon="2.55776">
        <ele>122</ele>
        <time>2018-02-18T13:34:10Z</time>
      </trkpt>
      <trkpt lat="48.36835" lon="2.55764">
        <ele>121</ele>
        <time>2018-02-18T13:34:23Z</time>
      </trkpt>
      <trkpt lat="48.36825" lon="2.55748">
        <ele>120</ele>
        <time>2018-02-18T13:34:37Z</time>
      </trkpt>
      <trkpt lat="48.36816" lon="2.55731">
        <ele>119</ele>
        <time>2018-02-18T13:34:53Z</time>
      </trkpt>
      <trkpt lat="48.36806" lon="2.55715">
        <ele>119</ele>
        <time>2018-02-18T13:35:12Z</time>
      </trkpt>
      <trkpt lat="48.368" lon="2.55701">
        <ele>119</ele>
        <time>2018-02-18T13:35:23Z</time>
      </trkpt>
      <trkpt lat="48.36789" lon="2.55687">
        <ele>119</ele>
        <time>2018-02-18T13:35:39Z</time>
      </trkpt>
      <trkpt lat="48.36783" lon="2.55679">
        <ele>119</ele>
        <time>2018-02-18T13:35:44Z</time>
      </trkpt>
      <trkpt lat="48.36768" lon="2.55659">
        <ele>118</ele>
        <time>2018-02-18T13:35:59Z</time>
      </trkpt>
      <trkpt lat="48.36756" lon="2.55643">
        <ele>118</ele>
        <time>2018-02-18T13:36:13Z</time>
      </trkpt>
      <trkpt lat="48.3675" lon="2.55631">
        <ele>118</ele>
        <time>2018-02-18T13:36:25Z</time>
      </trkpt>
      <trkpt lat="48.36737" lon="2.55615">
        <ele>118</ele>
        <time>2018-02-18T13:36:39Z</time>
      </trkpt>
      <trkpt lat="48.36728" lon="2.55615">
        <ele>118</ele>
        <time>2018-02-18T13:36:55Z</time>
      </trkpt>
      <trkpt lat="48.36717" lon="2.55629">
        <ele>118</ele>
        <time>2018-02-18T13:37:11Z</time>
      </trkpt>
      <trkpt lat="48.36708" lon="2.55645">
        <ele>119</ele>
        <time>2018-02-18T13:37:27Z</time>
      </trkpt>
      <trkpt lat="48.36696" lon="2.55653">
        <ele>119</ele>
        <time>2018-02-18T13:37:44Z</time>
      </trkpt>
      <trkpt lat="48.36682" lon="2.55659">
        <ele>119</ele>
        <time>2018-02-18T13:37:59Z</time>
      </trkpt>
      <trkpt lat="48.36669" lon="2.55666">
        <ele>119</ele>
        <time>2018-02-18T13:38:14Z</time>
      </trkpt>
      <trkpt lat="48.36656" lon="2.5568">
        <ele>119</ele>
        <time>2018-02-18T13:38:30Z</time>
      </trkpt>
      <trkpt lat="48.36643" lon="2.55695">
        <ele>118</ele>
        <time>2018-02-18T13:38:46Z</time>
      </trkpt>
      <trkpt lat="48.36631" lon="2.55714">
        <ele>118</ele>
        <time>2018-02-18T13:39:06Z</time>
      </trkpt>
      <trkpt lat="48.36619" lon="2.55728">
        <ele>118</ele>
        <time>2018-02-18T13:39:26Z</time>
      </trkpt>
      <trkpt lat="48.36608" lon="2.55745">
        <ele>118</ele>
        <time>2018-02-18T13:39:45Z</time>
      </trkpt>
      <trkpt lat="48.36586" lon="2.55746">
        <ele>117</ele>
        <time>2018-02-18T13:40:04Z</time>
      </trkpt>
      <trkpt lat="48.36575" lon="2.55757">
        <ele>117</ele>
        <time>2018-02-18T13:40:21Z</time>
      </trkpt>
      <trkpt lat="48.36562" lon="2.5577">
        <ele>117</ele>
        <time>2018-02-18T13:40:40Z</time>
      </trkpt>
      <trkpt lat="48.3655" lon="2.55785">
        <ele>117</ele>
        <time>2018-02-18T13:40:58Z</time>
      </trkpt>
      <trkpt lat="48.36539" lon="2.558">
        <ele>117</ele>
        <time>2018-02-18T13:41:15Z</time>
      </trkpt>
      <trkpt lat="48.36528" lon="2.55818">
        <ele>116</ele>
        <time>2018-02-18T13:41:35Z</time>
      </trkpt>
      <trkpt lat="48.36519" lon="2.55831">
        <ele>116</ele>
        <time>2018-02-18T13:41:50Z</time>
      </trkpt>
      <trkpt lat="48.36512" lon="2.55846">
        <ele>117</ele>
        <time>2018-02-18T13:42:06Z</time>
      </trkpt>
      <trkpt lat="48.36506" lon="2.55861">
        <ele>117</ele>
        <time>2018-02-18T13:42:24Z</time>
      </trkpt>
      <trkpt lat="48.36495" lon="2.5588">
        <ele>116</ele>
        <time>2018-02-18T13:42:42Z</time>
      </trkpt>
      <trkpt lat="48.36484" lon="2.55897">
        <ele>116</ele>
        <time>2018-02-18T13:42:58Z</time>
      </trkpt>
      <trkpt lat="48.36473" lon="2.55916">
        <ele>116</ele>
        <time>2018-02-18T13:43:18Z</time>
      </trkpt>
      <trkpt lat="48.3646" lon="2.55937">
        <ele>117</ele>
        <time>2018-02-18T13:43:35Z</time>
      </trkpt>
      <trkpt lat="48.36452" lon="2.55942">
        <ele>117</ele>
        <time>2018-02-18T13:43:57Z</time>
      </trkpt>
      <trkpt lat="48.36451" lon="2.55942">
        <ele>117</ele>
        <time>2018-02-18T13:43:58Z</time>
      </trkpt>
      <trkpt lat="48.36441" lon="2.55944">
        <ele>117</ele>
        <time>2018-02-18T13:44:12Z</time>
      </trkpt>
      <trkpt lat="48.36436" lon="2.55931">
        <ele>116</ele>
        <time>2018-02-18T13:44:31Z</time>
      </trkpt>
      <trkpt lat="48.36437" lon="2.55918">
        <ele>116</ele>
        <time>2018-02-18T13:44:47Z</time>
      </trkpt>
      <trkpt lat="48.36438" lon="2.55908">
        <ele>116</ele>
        <time>2018-02-18T13:45:02Z</time>
      </trkpt>
      <trkpt lat="48.3644" lon="2.55894">
        <ele>116</ele>
        <time>2018-02-18T13:45:21Z</time>
      </trkpt>
      <trkpt lat="48.36442" lon="2.55878">
        <ele>115</ele>
        <time>2018-02-18T13:45:35Z</time>
      </trkpt>
      <trkpt lat="48.36444" lon="2.55858">
        <ele>115</ele>
        <time>2018-02-18T13:45:51Z</time>
      </trkpt>
      <trkpt lat="48.36445" lon="2.55832">
        <ele>114</ele>
        <time>2018-02-18T13:46:07Z</time>
      </trkpt>
      <trkpt lat="48.36447" lon="2.55809">
        <ele>114</ele>
        <time>2018-02-18T13:46:25Z</time>
      </trkpt>
      <trkpt lat="48.36448" lon="2.55791">
        <ele>114</ele>
        <time>2018-02-18T13:46:40Z</time>
      </trkpt>
      <trkpt lat="48.36451" lon="2.55778">
        <ele>114</ele>
        <time>2018-02-18T13:46:55Z</time>
      </trkpt>
      <trkpt lat="48.36451" lon="2.55762">
        <ele>113</ele>
        <time>2018-02-18T13:47:09Z</time>
      </trkpt>
      <trkpt lat="48.3645" lon="2.55751">
        <ele>113</ele>
        <time>2018-02-18T13:47:23Z</time>
      </trkpt>
      <trkpt lat="48.36447" lon="2.55734">
        <ele>113</ele>
        <time>2018-02-18T13:47:39Z</time>
      </trkpt>
      <trkpt lat="48.36445" lon="2.55719">
        <ele>113</ele>
        <time>2018-02-18T13:47:53Z</time>
      </trkpt>
      <trkpt lat="48.36443" lon="2.55705">
        <ele>113</ele>
        <time>2018-02-18T13:48:10Z</time>
      </trkpt>
      <trkpt lat="48.36441" lon="2.55695">
        <ele>113</ele>
        <time>2018-02-18T13:48:26Z</time>
      </trkpt>
      <trkpt lat="48.36442" lon="2.55685">
        <ele>113</ele>
        <time>2018-02-18T13:48:43Z</time>
      </trkpt>
      <trkpt lat="48.36434" lon="2.55678">
        <ele>113</ele>
        <time>2018-02-18T13:48:56Z</time>
      </trkpt>
      <trkpt lat="48.36421" lon="2.55681">
        <ele>113</ele>
        <time>2018-02-18T13:49:10Z</time>
      </trkpt>
      <trkpt lat="48.36408" lon="2.55683">
        <ele>112</ele>
        <time>2018-02-18T13:49:25Z</time>
      </trkpt>
      <trkpt lat="48.36404" lon="2.55673">
        <ele>112</ele>
        <time>2018-02-18T13:49:38Z</time>
      </trkpt>
      <trkpt lat="48.364" lon="2.55657">
        <ele>112</ele>
        <time>2018-02-18T13:49:53Z</time>
      </trkpt>
      <trkpt lat="48.36393" lon="2.55643">
        <ele>112</ele>
        <time>2018-02-18T13:50:07Z</time>
      </trkpt>
      <trkpt lat="48.3638" lon="2.55636">
        <ele>112</ele>
        <time>2018-02-18T13:50:21Z</time>
      </trkpt>
      <trkpt lat="48.36367" lon="2.55622">
        <ele>112</ele>
        <time>2018-02-18T13:50:35Z</time>
      </trkpt>
      <trkpt lat="48.3635" lon="2.55612">
        <ele>111</ele>
        <time>2018-02-18T13:50:51Z</time>
      </trkpt>
      <trkpt lat="48.36341" lon="2.55597">
        <ele>111</ele>
        <time>2018-02-18T13:51:07Z</time>
      </trkpt>
      <trkpt lat="48.36335" lon="2.55581">
        <ele>110</ele>
        <time>2018-02-18T13:51:23Z</time>
      </trkpt>
      <trkpt lat="48.36328" lon="2.55567">
        <ele>109</ele>
        <time>2018-02-18T13:51:37Z</time>
      </trkpt>
      <trkpt lat="48.3632" lon="2.55553">
        <ele>108</ele>
        <time>2018-02-18T13:51:49Z</time>
      </trkpt>
      <trkpt lat="48.36317" lon="2.55539">
        <ele>108</ele>
        <time>2018-02-18T13:52:03Z</time>
      </trkpt>
      <trkpt lat="48.36317" lon="2.55522">
        <ele>108</ele>
        <time>2018-02-18T13:52:16Z</time>
      </trkpt>
      <trkpt lat="48.36318" lon="2.55503">
        <ele>108</ele>
        <time>2018-02-18T13:52:30Z</time>
      </trkpt>
      <trkpt lat="48.36323" lon="2.5549">
        <ele>108</ele>
        <time>2018-02-18T13:52:43Z</time>
      </trkpt>
      <trkpt lat="48.36332" lon="2.55475">
        <ele>108</ele>
        <time>2018-02-18T13:52:58Z</time>
      </trkpt>
      <trkpt lat="48.36338" lon="2.55455">
        <ele>111</ele>
        <time>2018-02-18T13:53:12Z</time>
      </trkpt>
      <trkpt lat="48.36342" lon="2.55436">
        <ele>110</ele>
        <time>2018-02-18T13:53:25Z</time>
      </trkpt>
      <trkpt lat="48.36349" lon="2.55417">
        <ele>110</ele>
        <time>2018-02-18T13:53:41Z</time>
      </trkpt>
      <trkpt lat="48.36353" lon="2.55402">
        <ele>110</ele>
        <time>2018-02-18T13:53:53Z</time>
      </trkpt>
      <trkpt lat="48.36355" lon="2.5538">
        <ele>111</ele>
        <time>2018-02-18T13:54:10Z</time>
      </trkpt>
      <trkpt lat="48.36353" lon="2.5536">
        <ele>111</ele>
        <time>2018-02-18T13:54:22Z</time>
      </trkpt>
      <trkpt lat="48.36358" lon="2.55345">
        <ele>111</ele>
        <time>2018-02-18T13:54:37Z</time>
      </trkpt>
      <trkpt lat="48.36358" lon="2.55333">
        <ele>111</ele>
        <time>2018-02-18T13:54:53Z</time>
      </trkpt>
      <trkpt lat="48.36353" lon="2.5532">
        <ele>111</ele>
        <time>2018-02-18T13:55:04Z</time>
      </trkpt>
      <trkpt lat="48.36354" lon="2.55306">
        <ele>111</ele>
        <time>2018-02-18T13:55:19Z</time>
      </trkpt>
      <trkpt lat="48.36354" lon="2.55295">
        <ele>111</ele>
        <time>2018-02-18T13:55:32Z</time>
      </trkpt>
      <trkpt lat="48.36355" lon="2.55276">
        <ele>111</ele>
        <time>2018-02-18T13:55:47Z</time>
      </trkpt>
      <trkpt lat="48.36355" lon="2.55264">
        <ele>111</ele>
        <time>2018-02-18T13:56:01Z</time>
      </trkpt>
      <trkpt lat="48.36353" lon="2.55257">
        <ele>111</ele>
        <time>2018-02-18T13:56:21Z</time>
      </trkpt>
      <trkpt lat="48.36356" lon="2.55248">
        <ele>111</ele>
        <time>2018-02-18T13:56:33Z</time>
      </trkpt>
      <trkpt lat="48.36362" lon="2.55231">
        <ele>112</ele>
        <time>2018-02-18T13:56:48Z</time>
      </trkpt>
      <trkpt lat="48.36367" lon="2.55217">
        <ele>112</ele>
        <time>2018-02-18T13:57:01Z</time>
      </trkpt>
      <trkpt lat="48.3637" lon="2.55199">
        <ele>112</ele>
        <time>2018-02-18T13:57:17Z</time>
      </trkpt>
      <trkpt lat="48.36371" lon="2.55177">
        <ele>113</ele>
        <time>2018-02-18T13:57:34Z</time>
      </trkpt>
      <trkpt lat="48.36373" lon="2.55156">
        <ele>113</ele>
        <time>2018-02-18T13:57:51Z</time>
      </trkpt>
      <trkpt lat="48.36371" lon="2.55127">
        <ele>113</ele>
        <time>2018-02-18T13:58:10Z</time>
      </trkpt>
      <trkpt lat="48.3637" lon="2.55108">
        <ele>113</ele>
        <time>2018-02-18T13:58:25Z</time>
      </trkpt>
      <trkpt lat="48.36369" lon="2.55092">
        <ele>113</ele>
        <time>2018-02-18T13:58:39Z</time>
      </trkpt>
      <trkpt lat="48.36367" lon="2.55074">
        <ele>115</ele>
        <time>2018-02-18T13:58:57Z</time>
      </trkpt>
      <trkpt lat="48.36374" lon="2.5506">
        <ele>115</ele>
        <time>2018-02-18T13:59:15Z</time>
      </trkpt>
      <trkpt lat="48.3638" lon="2.55051">
        <ele>115</ele>
        <time>2018-02-18T13:59:28Z</time>
      </trkpt>
      <trkpt lat="48.36387" lon="2.55041">
        <ele>115</ele>
        <time>2018-02-18T13:59:41Z</time>
      </trkpt>
      <trkpt lat="48.36395" lon="2.5503">
        <ele>115</ele>
        <time>2018-02-18T13:59:53Z</time>
      </trkpt>
      <trkpt lat="48.36405" lon="2.55019">
        <ele>116</ele>
        <time>2018-02-18T14:00:09Z</time>
      </trkpt>
      <trkpt lat="48.36414" lon="2.55003">
        <ele>116</ele>
        <time>2018-02-18T14:00:24Z</time>
      </trkpt>
      <trkpt lat="48.3642" lon="2.54993">
        <ele>117</ele>
        <time>2018-02-18T14:00:36Z</time>
      </trkpt>
      <trkpt lat="48.36425" lon="2.54979">
        <ele>118</ele>
        <time>2018-02-18T14:00:50Z</time>
      </trkpt>
      <trkpt lat="48.36428" lon="2.54963">
        <ele>119</ele>
        <time>2018-02-18T14:01:04Z</time>
      </trkpt>
      <trkpt lat="48.36434" lon="2.54951">
        <ele>119</ele>
        <time>2018-02-18T14:01:19Z</time>
      </trkpt>
      <trkpt lat="48.36438" lon="2.54932">
        <ele>119</ele>
        <time>2018-02-18T14:01:34Z</time>
      </trkpt>
      <trkpt lat="48.36445" lon="2.54913">
        <ele>120</ele>
        <time>2018-02-18T14:01:49Z</time>
      </trkpt>
      <trkpt lat="48.36449" lon="2.54894">
        <ele>121</ele>
        <time>2018-02-18T14:02:03Z</time>
      </trkpt>
      <trkpt lat="48.36454" lon="2.54887">
        <ele>121</ele>
        <time>2018-02-18T14:02:09Z</time>
      </trkpt>
      <trkpt lat="48.36462" lon="2.54875">
        <ele>121</ele>
        <time>2018-02-18T14:02:23Z</time>
      </trkpt>
      <trkpt lat="48.36472" lon="2.54865">
        <ele>121</ele>
        <time>2018-02-18T14:02:39Z</time>
      </trkpt>
      <trkpt lat="48.36477" lon="2.54865">
        <ele>121</ele>
        <time>2018-02-18T14:02:57Z</time>
      </trkpt>
      <trkpt lat="48.36481" lon="2.54863">
        <ele>122</ele>
        <time>2018-02-18T14:03:14Z</time>
      </trkpt>
      <trkpt lat="48.36482" lon="2.54851">
        <ele>122</ele>
        <time>2018-02-18T14:03:33Z</time>
      </trkpt>
      <trkpt lat="48.36489" lon="2.5484">
        <ele>122</ele>
        <time>2018-02-18T14:03:48Z</time>
      </trkpt>
      <trkpt lat="48.36492" lon="2.54834">
        <ele>122</ele>
        <time>2018-02-18T14:04:00Z</time>
      </trkpt>
      <trkpt lat="48.36505" lon="2.54826">
        <ele>124</ele>
        <time>2018-02-18T14:04:18Z</time>
      </trkpt>
      <trkpt lat="48.36518" lon="2.5482">
        <ele>124</ele>
        <time>2018-02-18T14:04:31Z</time>
      </trkpt>
      <trkpt lat="48.3653" lon="2.5481">
        <ele>125</ele>
        <time>2018-02-18T14:04:45Z</time>
      </trkpt>
      <trkpt lat="48.36537" lon="2.54801">
        <ele>125</ele>
        <time>2018-02-18T14:05:00Z</time>
      </trkpt>
      <trkpt lat="48.36541" lon="2.54782">
        <ele>125</ele>
        <time>2018-02-18T14:05:13Z</time>
      </trkpt>
      <trkpt lat="48.36545" lon="2.54773">
        <ele>125</ele>
        <time>2018-02-18T14:05:26Z</time>
      </trkpt>
      <trkpt lat="48.36546" lon="2.54758">
        <ele>125</ele>
        <time>2018-02-18T14:05:47Z</time>
      </trkpt>
      <trkpt lat="48.36554" lon="2.54747">
        <ele>125</ele>
        <time>2018-02-18T14:06:01Z</time>
      </trkpt>
      <trkpt lat="48.36555" lon="2.54735">
        <ele>125</ele>
        <time>2018-02-18T14:06:20Z</time>
      </trkpt>
      <trkpt lat="48.3656" lon="2.54728">
        <ele>125</ele>
        <time>2018-02-18T14:06:34Z</time>
      </trkpt>
      <trkpt lat="48.36569" lon="2.54716">
        <ele>125</ele>
        <time>2018-02-18T14:06:49Z</time>
      </trkpt>
      <trkpt lat="48.36575" lon="2.54711">
        <ele>125</ele>
        <time>2018-02-18T14:07:03Z</time>
      </trkpt>
      <trkpt lat="48.36587" lon="2.54699">
        <ele>124</ele>
        <time>2018-02-18T14:07:17Z</time>
      </trkpt>
      <trkpt lat="48.36601" lon="2.54695">
        <ele>124</ele>
        <time>2018-02-18T14:07:31Z</time>
      </trkpt>
      <trkpt lat="48.36608" lon="2.54691">
        <ele>124</ele>
        <time>2018-02-18T14:07:43Z</time>
      </trkpt>
      <trkpt lat="48.36619" lon="2.54692">
        <ele>124</ele>
        <time>2018-02-18T14:07:57Z</time>
      </trkpt>
      <trkpt lat="48.36629" lon="2.54691">
        <ele>124</ele>
        <time>2018-02-18T14:08:17Z</time>
      </trkpt>
      <trkpt lat="48.36639" lon="2.54681">
        <ele>123</ele>
        <time>2018-02-18T14:08:34Z</time>
      </trkpt>
      <trkpt lat="48.36649" lon="2.54669">
        <ele>123</ele>
        <time>2018-02-18T14:08:49Z</time>
      </trkpt>
      <trkpt lat="48.36656" lon="2.54671">
        <ele>123</ele>
        <time>2018-02-18T14:09:00Z</time>
      </trkpt>
      <trkpt lat="48.36665" lon="2.54676">
        <ele>123</ele>
        <time>2018-02-18T14:09:16Z</time>
      </trkpt>
      <trkpt lat="48.36678" lon="2.54677">
        <ele>122</ele>
        <time>2018-02-18T14:09:34Z</time>
      </trkpt>
      <trkpt lat="48.36691" lon="2.5466">
        <ele>121</ele>
        <time>2018-02-18T14:09:52Z</time>
      </trkpt>
      <trkpt lat="48.36702" lon="2.54662">
        <ele>121</ele>
        <time>2018-02-18T14:10:06Z</time>
      </trkpt>
      <trkpt lat="48.36713" lon="2.54666">
        <ele>121</ele>
        <time>2018-02-18T14:10:24Z</time>
      </trkpt>
      <trkpt lat="48.36719" lon="2.54662">
        <ele>121</ele>
        <time>2018-02-18T14:10:44Z</time>
      </trkpt>
      <trkpt lat="48.36732" lon="2.54664">
        <ele>120</ele>
        <time>2018-02-18T14:11:00Z</time>
      </trkpt>
      <trkpt lat="48.36744" lon="2.5466">
        <ele>120</ele>
        <time>2018-02-18T14:11:16Z</time>
      </trkpt>
      <trkpt lat="48.36755" lon="2.54658">
        <ele>120</ele>
        <time>2018-02-18T14:11:32Z</time>
      </trkpt>
      <trkpt lat="48.36769" lon="2.54658">
        <ele>119</ele>
        <time>2018-02-18T14:11:47Z</time>
      </trkpt>
      <trkpt lat="48.36779" lon="2.5466">
        <ele>119</ele>
        <time>2018-02-18T14:12:04Z</time>
      </trkpt>
      <trkpt lat="48.36793" lon="2.54663">
        <ele>119</ele>
        <time>2018-02-18T14:12:19Z</time>
      </trkpt>
      <trkpt lat="48.36804" lon="2.5466">
        <ele>119</ele>
        <time>2018-02-18T14:12:34Z</time>
      </trkpt>
      <trkpt lat="48.36815" lon="2.5465">
        <ele>119</ele>
        <time>2018-02-18T14:12:51Z</time>
      </trkpt>
      <trkpt lat="48.36821" lon="2.54637">
        <ele>119</ele>
        <time>2018-02-18T14:13:05Z</time>
      </trkpt>
      <trkpt lat="48.36837" lon="2.54627">
        <ele>119</ele>
        <time>2018-02-18T14:13:23Z</time>
      </trkpt>
      <trkpt lat="48.36847" lon="2.54625">
        <ele>119</ele>
        <time>2018-02-18T14:13:40Z</time>
      </trkpt>
      <trkpt lat="48.36861" lon="2.54621">
        <ele>119</ele>
        <time>2018-02-18T14:13:57Z</time>
      </trkpt>
      <trkpt lat="48.3687" lon="2.54609">
        <ele>119</ele>
        <time>2018-02-18T14:14:14Z</time>
      </trkpt>
      <trkpt lat="48.36875" lon="2.54599">
        <ele>119</ele>
        <time>2018-02-18T14:14:33Z</time>
      </trkpt>
      <trkpt lat="48.36875" lon="2.5458">
        <ele>119</ele>
        <time>2018-02-18T14:14:49Z</time>
      </trkpt>
      <trkpt lat="48.36873" lon="2.54583">
        <ele>118</ele>
        <time>2018-02-18T14:15:06Z</time>
      </trkpt>
      <trkpt lat="48.36879" lon="2.54593">
        <ele>119</ele>
        <time>2018-02-18T14:15:24Z</time>
      </trkpt>
      <trkpt lat="48.36886" lon="2.54582">
        <ele>119</ele>
        <time>2018-02-18T14:15:41Z</time>
      </trkpt>
      <trkpt lat="48.36883" lon="2.54573">
        <ele>119</ele>
        <time>2018-02-18T14:15:56Z</time>
      </trkpt>
      <trkpt lat="48.36877" lon="2.54569">
        <ele>119</ele>
        <time>2018-02-18T14:16:12Z</time>
      </trkpt>
      <trkpt lat="48.36883" lon="2.54562">
        <ele>119</ele>
        <time>2018-02-18T14:16:27Z</time>
      </trkpt>
      <trkpt lat="48.36887" lon="2.54541">
        <ele>119</ele>
        <time>2018-02-18T14:16:42Z</time>
      </trkpt>
      <trkpt lat="48.36883" lon="2.54525">
        <ele>119</ele>
        <time>2018-02-18T14:17:00Z</time>
      </trkpt>
      <trkpt lat="48.3688" lon="2.5451">
        <ele>119</ele>
        <time>2018-02-18T14:17:16Z</time>
      </trkpt>
      <trkpt lat="48.36883" lon="2.54501">
        <ele>119</ele>
        <time>2018-02-18T14:17:29Z</time>
      </trkpt>
      <trkpt lat="48.36884" lon="2.54483">
        <ele>119</ele>
        <time>2018-02-18T14:17:40Z</time>
      </trkpt>
      <trkpt lat="48.36885" lon="2.54472">
        <ele>119</ele>
        <time>2018-02-18T14:17:55Z</time>
      </trkpt>
      <trkpt lat="48.36889" lon="2.54456">
        <ele>119</ele>
        <time>2018-02-18T14:18:09Z</time>
      </trkpt>
      <trkpt lat="48.3689" lon="2.54434">
        <ele>119</ele>
        <time>2018-02-18T14:18:24Z</time>
      </trkpt>
      <trkpt lat="48.36891" lon="2.54414">
        <ele>119</ele>
        <time>2018-02-18T14:18:37Z</time>
      </trkpt>
      <trkpt lat="48.36893" lon="2.54395">
        <ele>119</ele>
        <time>2018-02-18T14:18:51Z</time>
      </trkpt>
      <trkpt lat="48.3689" lon="2.54373">
        <ele>119</ele>
        <time>2018-02-18T14:19:06Z</time>
      </trkpt>
      <trkpt lat="48.36888" lon="2.5436">
        <ele>119</ele>
        <time>2018-02-18T14:19:20Z</time>
      </trkpt>
      <trkpt lat="48.36885" lon="2.54336">
        <ele>119</ele>
        <time>2018-02-18T14:19:39Z</time>
      </trkpt>
      <trkpt lat="48.36885" lon="2.54331">
        <ele>119</ele>
        <time>2018-02-18T14:19:43Z</time>
      </trkpt>
      <trkpt lat="48.36882" lon="2.54308">
        <ele>119</ele>
        <time>2018-02-18T14:19:59Z</time>
      </trkpt>
      <trkpt lat="48.36879" lon="2.54292">
        <ele>120</ele>
        <time>2018-02-18T14:20:14Z</time>
      </trkpt>
      <trkpt lat="48.36874" lon="2.54272">
        <ele>120</ele>
        <time>2018-02-18T14:20:30Z</time>
      </trkpt>
      <trkpt lat="48.36869" lon="2.54244">
        <ele>120</ele>
        <time>2018-02-18T14:20:45Z</time>
      </trkpt>
      <trkpt lat="48.3687" lon="2.54234">
        <ele>120</ele>
        <time>2018-02-18T14:21:02Z</time>
      </trkpt>
      <trkpt lat="48.36864" lon="2.54211">
        <ele>120</ele>
        <time>2018-02-18T14:21:18Z</time>
      </trkpt>
      <trkpt lat="48.3686" lon="2.54192">
        <ele>120</ele>
        <time>2018-02-18T14:21:33Z</time>
      </trkpt>
      <trkpt lat="48.36859" lon="2.54178">
        <ele>120</ele>
        <time>2018-02-18T14:21:47Z</time>
      </trkpt>
      <trkpt lat="48.36856" lon="2.54165">
        <ele>121</ele>
        <time>2018-02-18T14:22:03Z</time>
      </trkpt>
      <trkpt lat="48.36855" lon="2.54149">
        <ele>121</ele>
        <time>2018-02-18T14:22:16Z</time>
      </trkpt>
      <trkpt lat="48.3685" lon="2.54132">
        <ele>121</ele>
        <time>2018-02-18T14:22:31Z</time>
      </trkpt>
      <trkpt lat="48.36845" lon="2.54111">
        <ele>122</ele>
        <time>2018-02-18T14:22:48Z</time>
      </trkpt>
      <trkpt lat="48.36831" lon="2.54086">
        <ele>122</ele>
        <time>2018-02-18T14:23:06Z</time>
      </trkpt>
      <trkpt lat="48.36829" lon="2.54073">
        <ele>121</ele>
        <time>2018-02-18T14:23:20Z</time>
      </trkpt>
      <trkpt lat="48.36828" lon="2.54054">
        <ele>121</ele>
        <time>2018-02-18T14:23:34Z</time>
      </trkpt>
      <trkpt lat="48.36824" lon="2.54039">
        <ele>121</ele>
        <time>2018-02-18T14:23:48Z</time>
      </trkpt>
      <trkpt lat="48.36823" lon="2.54023">
        <ele>121</ele>
        <time>2018-02-18T14:24:05Z</time>
      </trkpt>
      <trkpt lat="48.36814" lon="2.53998">
        <ele>122</ele>
        <time>2018-02-18T14:24:21Z</time>
      </trkpt>
      <trkpt lat="48.36811" lon="2.53978">
        <ele>122</ele>
        <time>2018-02-18T14:24:38Z</time>
      </trkpt>
      <trkpt lat="48.36809" lon="2.53963">
        <ele>122</ele>
        <time>2018-02-18T14:24:53Z</time>
      </trkpt>
      <trkpt lat="48.3681" lon="2.53954">
        <ele>122</ele>
        <time>2018-02-18T14:25:10Z</time>
      </trkpt>
      <trkpt lat="48.36812" lon="2.53944">
        <ele>122</ele>
        <time>2018-02-18T14:25:24Z</time>
      </trkpt>
      <trkpt lat="48.36813" lon="2.53932">
        <ele>122</ele>
        <time>2018-02-18T14:25:37Z</time>
      </trkpt>
      <trkpt lat="48.36817" lon="2.53911">
        <ele>122</ele>
        <time>2018-02-18T14:25:54Z</time>
      </trkpt>
      <trkpt lat="48.36818" lon="2.53895">
        <ele>122</ele>
        <time>2018-02-18T14:26:08Z</time>
      </trkpt>
      <trkpt lat="48.36823" lon="2.53869">
        <ele>122</ele>
        <time>2018-02-18T14:26:25Z</time>
      </trkpt>
      <trkpt lat="48.36828" lon="2.53848">
        <ele>121</ele>
        <time>2018-02-18T14:26:42Z</time>
      </trkpt>
      <trkpt lat="48.36832" lon="2.53825">
        <ele>121</ele>
        <time>2018-02-18T14:27:01Z</time>
      </trkpt>
      <trkpt lat="48.36831" lon="2.53799">
        <ele>120</ele>
        <time>2018-02-18T14:27:23Z</time>
      </trkpt>
      <trkpt lat="48.36835" lon="2.5379">
        <ele>117</ele>
        <time>2018-02-18T14:27:38Z</time>
      </trkpt>
      <trkpt lat="48.36837" lon="2.53781">
        <ele>117</ele>
        <time>2018-02-18T14:27:55Z</time>
      </trkpt>
      <trkpt lat="48.36839" lon="2.53766">
        <ele>117</ele>
        <time>2018-02-18T14:28:12Z</time>
      </trkpt>
      <trkpt lat="48.3684" lon="2.53755">
        <ele>117</ele>
        <time>2018-02-18T14:28:28Z</time>
      </trkpt>
      <trkpt lat="48.36842" lon="2.53738">
        <ele>115</ele>
        <time>2018-02-18T14:28:47Z</time>
      </trkpt>
      <trkpt lat="48.36848" lon="2.53723">
        <ele>114</ele>
        <time>2018-02-18T14:29:02Z</time>
      </trkpt>
      <trkpt lat="48.36853" lon="2.53709">
        <ele>113</ele>
        <time>2018-02-18T14:29:17Z</time>
      </trkpt>
      <trkpt lat="48.36859" lon="2.53697">
        <ele>112</ele>
        <time>2018-02-18T14:29:34Z</time>
      </trkpt>
      <trkpt lat="48.36864" lon="2.53687">
        <ele>112</ele>
        <time>2018-02-18T14:29:52Z</time>
      </trkpt>
      <trkpt lat="48.3687" lon="2.53672">
        <ele>112</ele>
        <time>2018-02-18T14:30:09Z</time>
      </trkpt>
      <trkpt lat="48.36874" lon="2.5366">
        <ele>107</ele>
        <time>2018-02-18T14:30:24Z</time>
      </trkpt>
      <trkpt lat="48.36873" lon="2.5365">
        <ele>107</ele>
        <time>2018-02-18T14:30:41Z</time>
      </trkpt>
      <trkpt lat="48.36874" lon="2.53634">
        <ele>106</ele>
        <time>2018-02-18T14:30:57Z</time>
      </trkpt>
      <trkpt lat="48.3687" lon="2.53621">
        <ele>105</ele>
        <time>2018-02-18T14:31:16Z</time>
      </trkpt>
      <trkpt lat="48.36869" lon="2.53601">
        <ele>105</ele>
        <time>2018-02-18T14:31:34Z</time>
      </trkpt>
      <trkpt lat="48.36868" lon="2.53583">
        <ele>104</ele>
        <time>2018-02-18T14:31:51Z</time>
      </trkpt>
      <trkpt lat="48.3687" lon="2.53571">
        <ele>97</ele>
        <time>2018-02-18T14:32:09Z</time>
      </trkpt>
      <trkpt lat="48.3687" lon="2.5356">
        <ele>97</ele>
        <time>2018-02-18T14:32:26Z</time>
      </trkpt>
      <trkpt lat="48.36876" lon="2.53549">
        <ele>95</ele>
        <time>2018-02-18T14:32:44Z</time>
      </trkpt>
      <trkpt lat="48.3688" lon="2.53529">
        <ele>94</ele>
        <time>2018-02-18T14:32:59Z</time>
      </trkpt>
      <trkpt lat="48.36883" lon="2.5352">
        <ele>93</ele>
        <time>2018-02-18T14:33:16Z</time>
      </trkpt>
      <trkpt lat="48.36886" lon="2.53503">
        <ele>91</ele>
        <time>2018-02-18T14:33:31Z</time>
      </trkpt>
      <trkpt lat="48.36889" lon="2.53488">
        <ele>85</ele>
        <time>2018-02-18T14:33:49Z</time>
      </trkpt>
      <trkpt lat="48.36895" lon="2.53474">
        <ele>85</ele>
        <time>2018-02-18T14:34:04Z</time>
      </trkpt>
      <trkpt lat="48.369" lon="2.53462">
        <ele>84</ele>
        <time>2018-02-18T14:34:21Z</time>
      </trkpt>
      <trkpt lat="48.36907" lon="2.53448">
        <ele>83</ele>
        <time>2018-02-18T14:34:40Z</time>
      </trkpt>
      <trkpt lat="48.36914" lon="2.53446">
        <ele>82</ele>
        <time>2018-02-18T14:34:53Z</time>
      </trkpt>
      <trkpt lat="48.36924" lon="2.53447">
        <ele>77</ele>
        <time>2018-02-18T14:35:07Z</time>
      </trkpt>
      <trkpt lat="48.36929" lon="2.53446">
        <ele>77</ele>
        <time>2018-02-18T14:35:26Z</time>
      </trkpt>
      <trkpt lat="48.36938" lon="2.53456">
        <ele>78</ele>
        <time>2018-02-18T14:35:44Z</time>
      </trkpt>
      <trkpt lat="48.36948" lon="2.53468">
        <ele>78</ele>
        <time>2018-02-18T14:36:02Z</time>
      </trkpt>
      <trkpt lat="48.36958" lon="2.53478">
        <ele>78</ele>
        <time>2018-02-18T14:36:18Z</time>
      </trkpt>
      <trkpt lat="48.36969" lon="2.53481">
        <ele>77</ele>
        <time>2018-02-18T14:36:33Z</time>
      </trkpt>
      <trkpt lat="48.36979" lon="2.53486">
        <ele>77</ele>
        <time>2018-02-18T14:36:50Z</time>
      </trkpt>
      <trkpt lat="48.36998" lon="2.53499">
        <ele>76</ele>
        <time>2018-02-18T14:37:08Z</time>
      </trkpt>
      <trkpt lat="48.37006" lon="2.53508">
        <ele>77</ele>
        <time>2018-02-18T14:37:24Z</time>
      </trkpt>
      <trkpt lat="48.37022" lon="2.53521">
        <ele>78</ele>
        <time>2018-02-18T14:37:40Z</time>
      </trkpt>
      <trkpt lat="48.37039" lon="2.53524">
        <ele>78</ele>
        <time>2018-02-18T14:38:00Z</time>
      </trkpt>
      <trkpt lat="48.37053" lon="2.53525">
        <ele>78</ele>
        <time>2018-02-18T14:38:15Z</time>
      </trkpt>
      <trkpt lat="48.37067" lon="2.53526">
        <ele>78</ele>
        <time>2018-02-18T14:38:30Z</time>
      </trkpt>
      <trkpt lat="48.3707" lon="2.53529">
        <ele>78</ele>
        <time>2018-02-18T14:38:46Z</time>
      </trkpt>
      <trkpt lat="48.37087" lon="2.53526">
        <ele>76</ele>
        <time>2018-02-18T14:39:04Z</time>
      </trkpt>
      <trkpt lat="48.37099" lon="2.53523">
        <ele>76</ele>
        <time>2018-02-18T14:39:24Z</time>
      </trkpt>
      <trkpt lat="48.37113" lon="2.53512">
        <ele>76</ele>
        <time>2018-02-18T14:39:41Z</time>
      </trkpt>
      <trkpt lat="48.37123" lon="2.53516">
        <ele>76</ele>
        <time>2018-02-18T14:39:58Z</time>
      </trkpt>
      <trkpt lat="48.37128" lon="2.53529">
        <ele>76</ele>
        <time>2018-02-18T14:40:12Z</time>
      </trkpt>
      <trkpt lat="48.37131" lon="2.53542">
        <ele>77</ele>
        <time>2018-02-18T14:40:29Z</time>
      </trkpt>
      <trkpt lat="48.37141" lon="2.53551">
        <ele>76</ele>
        <time>2018-02-18T14:40:45Z</time>
      </trkpt>
      <trkpt lat="48.3715" lon="2.53558">
        <ele>76</ele>
        <time>2018-02-18T14:40:58Z</time>
      </trkpt>
      <trkpt lat="48.37157" lon="2.53569">
        <ele>76</ele>
        <time>2018-02-18T14:41:14Z</time>
      </trkpt>
      <trkpt lat="48.37165" lon="2.53578">
        <ele>76</ele>
        <time>2018-02-18T14:41:28Z</time>
      </trkpt>
      <trkpt lat="48.3717" lon="2.53589">
        <ele>76</ele>
        <time>2018-02-18T14:41:44Z</time>
      </trkpt>
      <trkpt lat="48.37178" lon="2.53598">
        <ele>76</ele>
        <time>2018-02-18T14:42:00Z</time>
      </trkpt>
      <trkpt lat="48.37182" lon="2.53609">
        <ele>76</ele>
        <time>2018-02-18T14:42:14Z</time>
      </trkpt>
      <trkpt lat="48.37184" lon="2.53617">
        <ele>76</ele>
        <time>2018-02-18T14:42:29Z</time>
      </trkpt>
      <trkpt lat="48.37189" lon="2.53627">
        <ele>77</ele>
        <time>2018-02-18T14:42:42Z</time>
      </trkpt>
      <trkpt lat="48.37197" lon="2.53638">
        <ele>77</ele>
        <time>2018-02-18T14:42:57Z</time>
      </trkpt>
      <trkpt lat="48.37206" lon="2.53649">
        <ele>77</ele>
        <time>2018-02-18T14:43:11Z</time>
      </trkpt>
      <trkpt lat="48.37216" lon="2.53669">
        <ele>77</ele>
        <time>2018-02-18T14:43:29Z</time>
      </trkpt>
      <trkpt lat="48.37222" lon="2.53682">
        <ele>77</ele>
        <time>2018-02-18T14:43:43Z</time>
      </trkpt>
      <trkpt lat="48.3723" lon="2.53696">
        <ele>77</ele>
        <time>2018-02-18T14:43:59Z</time>
      </trkpt>
      <trkpt lat="48.37243" lon="2.53712">
        <ele>78</ele>
        <time>2018-02-18T14:44:16Z</time>
      </trkpt>
      <trkpt lat="48.37249" lon="2.5373">
        <ele>78</ele>
        <time>2018-02-18T14:44:31Z</time>
      </trkpt>
      <trkpt lat="48.37257" lon="2.53745">
        <ele>78</ele>
        <time>2018-02-18T14:44:46Z</time>
      </trkpt>
      <trkpt lat="48.37265" lon="2.5376">
        <ele>78</ele>
        <time>2018-02-18T14:45:01Z</time>
      </trkpt>
      <trkpt lat="48.37273" lon="2.53774">
        <ele>78</ele>
        <time>2018-02-18T14:45:16Z</time>
      </trkpt>
      <trkpt lat="48.37283" lon="2.53789">
        <ele>79</ele>
        <time>2018-02-18T14:45:32Z</time>
      </trkpt>
      <trkpt lat="48.3729" lon="2.53804">
        <ele>79</ele>
        <time>2018-02-18T14:45:47Z</time>
      </trkpt>
      <trkpt lat="48.37308" lon="2.53827">
        <ele>78</ele>
        <time>2018-02-18T14:46:05Z</time>
      </trkpt>
      <trkpt lat="48.37313" lon="2.53834">
        <ele>79</ele>
        <time>2018-02-18T14:46:19Z</time>
      </trkpt>
      <trkpt lat="48.3732" lon="2.53846">
        <ele>79</ele>
        <time>2018-02-18T14:46:35Z</time>
      </trkpt>
      <trkpt lat="48.37327" lon="2.53861">
        <ele>79</ele>
        <time>2018-02-18T14:46:49Z</time>
      </trkpt>
      <trkpt lat="48.37336" lon="2.53875">
        <ele>79</ele>
        <time>2018-02-18T14:47:04Z</time>
      </trkpt>
      <trkpt lat="48.37349" lon="2.53887">
        <ele>79</ele>
        <time>2018-02-18T14:47:18Z</time>
      </trkpt>
      <trkpt lat="48.37353" lon="2.539">
        <ele>79</ele>
        <time>2018-02-18T14:47:33Z</time>
      </trkpt>
      <trkpt lat="48.37367" lon="2.53912">
        <ele>79</ele>
        <time>2018-02-18T14:47:47Z</time>
      </trkpt>
      <trkpt lat="48.37373" lon="2.53926">
        <ele>80</ele>
        <time>2018-02-18T14:48:01Z</time>
      </trkpt>
      <trkpt lat="48.37377" lon="2.53936">
        <ele>80</ele>
        <time>2018-02-18T14:48:15Z</time>
      </trkpt>
      <trkpt lat="48.37383" lon="2.53949">
        <ele>80</ele>
        <time>2018-02-18T14:48:30Z</time>
      </trkpt>
      <trkpt lat="48.37391" lon="2.53969">
        <ele>81</ele>
        <time>2018-02-18T14:48:48Z</time>
      </trkpt>
      <trkpt lat="48.37398" lon="2.53978">
        <ele>81</ele>
        <time>2018-02-18T14:49:03Z</time>
      </trkpt>
      <trkpt lat="48.37402" lon="2.5399">
        <ele>81</ele>
        <time>2018-02-18T14:49:19Z</time>
      </trkpt>
      <trkpt lat="48.37405" lon="2.54002">
        <ele>82</ele>
        <time>2018-02-18T14:49:32Z</time>
      </trkpt>
      <trkpt lat="48.37408" lon="2.54021">
        <ele>82</ele>
        <time>2018-02-18T14:49:46Z</time>
      </trkpt>
      <trkpt lat="48.37416" lon="2.5404">
        <ele>83</ele>
        <time>2018-02-18T14:50:03Z</time>
      </trkpt>
      <trkpt lat="48.37423" lon="2.54058">
        <ele>83</ele>
        <time>2018-02-18T14:50:18Z</time>
      </trkpt>
      <trkpt lat="48.37428" lon="2.54074">
        <ele>83</ele>
        <time>2018-02-18T14:50:34Z</time>
      </trkpt>
      <trkpt lat="48.37432" lon="2.54087">
        <ele>84</ele>
        <time>2018-02-18T14:50:47Z</time>
      </trkpt>
      <trkpt lat="48.3744" lon="2.54103">
        <ele>85</ele>
        <time>2018-02-18T14:51:02Z</time>
      </trkpt>
      <trkpt lat="48.37445" lon="2.54122">
        <ele>85</ele>
        <time>2018-02-18T14:51:17Z</time>
      </trkpt>
      <trkpt lat="48.37452" lon="2.54137">
        <ele>85</ele>
        <time>2018-02-18T14:51:30Z</time>
      </trkpt>
      <trkpt lat="48.3746" lon="2.54155">
        <ele>86</ele>
        <time>2018-02-18T14:51:46Z</time>
      </trkpt>
      <trkpt lat="48.37469" lon="2.54179">
        <ele>88</ele>
        <time>2018-02-18T14:52:05Z</time>
      </trkpt>
      <trkpt lat="48.3747" lon="2.54199">
        <ele>88</ele>
        <time>2018-02-18T14:52:20Z</time>
      </trkpt>
      <trkpt lat="48.37471" lon="2.54221">
        <ele>89</ele>
        <time>2018-02-18T14:52:35Z</time>
      </trkpt>
      <trkpt lat="48.37473" lon="2.54233">
        <ele>89</ele>
        <time>2018-02-18T14:52:48Z</time>
      </trkpt>
      <trkpt lat="48.37471" lon="2.54258">
        <ele>90</ele>
        <time>2018-02-18T14:53:08Z</time>
      </trkpt>
      <trkpt lat="48.37467" lon="2.54283">
        <ele>90</ele>
        <time>2018-02-18T14:53:28Z</time>
      </trkpt>
      <trkpt lat="48.37463" lon="2.54301">
        <ele>90</ele>
        <time>2018-02-18T14:53:45Z</time>
      </trkpt>
      <trkpt lat="48.37461" lon="2.5432">
        <ele>90</ele>
        <time>2018-02-18T14:54:02Z</time>
      </trkpt>
      <trkpt lat="48.37458" lon="2.54338">
        <ele>89</ele>
        <time>2018-02-18T14:54:17Z</time>
      </trkpt>
      <trkpt lat="48.37455" lon="2.54348">
        <ele>89</ele>
        <time>2018-02-18T14:54:32Z</time>
      </trkpt>
      <trkpt lat="48.37452" lon="2.54351">
        <ele>89</ele>
        <time>2018-02-18T14:54:57Z</time>
      </trkpt>
      <trkpt lat="48.37454" lon="2.54362">
        <ele>89</ele>
        <time>2018-02-18T14:55:18Z</time>
      </trkpt>
      <trkpt lat="48.37456" lon="2.54365">
        <ele>89</ele>
        <time>2018-02-18T14:55:39Z</time>
      </trkpt>
      <trkpt lat="48.3746" lon="2.54376">
        <ele>89</ele>
        <time>2018-02-18T14:55:56Z</time>
      </trkpt>
      <trkpt lat="48.37465" lon="2.54389">
        <ele>88</ele>
        <time>2018-02-18T14:56:11Z</time>
      </trkpt>
      <trkpt lat="48.37469" lon="2.54408">
        <ele>88</ele>
        <time>2018-02-18T14:56:25Z</time>
      </trkpt>
      <trkpt lat="48.3747" lon="2.54427">
        <ele>87</ele>
        <time>2018-02-18T14:56:40Z</time>
      </trkpt>
      <trkpt lat="48.37473" lon="2.54446">
        <ele>87</ele>
        <time>2018-02-18T14:56:56Z</time>
      </trkpt>
      <trkpt lat="48.37476" lon="2.54468">
        <ele>87</ele>
        <time>2018-02-18T14:57:13Z</time>
      </trkpt>
      <trkpt lat="48.37479" lon="2.54496">
        <ele>88</ele>
        <time>2018-02-18T14:57:30Z</time>
      </trkpt>
      <trkpt lat="48.37481" lon="2.54519">
        <ele>88</ele>
        <time>2018-02-18T14:57:46Z</time>
      </trkpt>
      <trkpt lat="48.37482" lon="2.54543">
        <ele>88</ele>
        <time>2018-02-18T14:58:02Z</time>
      </trkpt>
      <trkpt lat="48.37482" lon="2.54569">
        <ele>88</ele>
        <time>2018-02-18T14:58:18Z</time>
      </trkpt>
      <trkpt lat="48.3748" lon="2.54587">
        <ele>88</ele>
        <time>2018-02-18T14:58:33Z</time>
      </trkpt>
      <trkpt lat="48.37482" lon="2.54606">
        <ele>88</ele>
        <time>2018-02-18T14:58:47Z</time>
      </trkpt>
      <trkpt lat="48.37484" lon="2.54627">
        <ele>88</ele>
        <time>2018-02-18T14:59:04Z</time>
      </trkpt>
      <trkpt lat="48.37489" lon="2.5465">
        <ele>88</ele>
        <time>2018-02-18T14:59:22Z</time>
      </trkpt>
      <trkpt lat="48.3749" lon="2.54661">
        <ele>88</ele>
        <time>2018-02-18T14:59:38Z</time>
      </trkpt>
      <trkpt lat="48.3749" lon="2.54672">
        <ele>88</ele>
        <time>2018-02-18T14:59:55Z</time>
      </trkpt>
      <trkpt lat="48.37489" lon="2.54668">
        <ele>88</ele>
        <time>2018-02-18T15:00:24Z</time>
      </trkpt>
      <trkpt lat="48.37487" lon="2.54674">
        <ele>88</ele>
        <time>2018-02-18T15:00:51Z</time>
      </trkpt>
      <trkpt lat="48.37487" lon="2.54689">
        <ele>88</ele>
        <time>2018-02-18T15:01:10Z</time>
      </trkpt>
      <trkpt lat="48.3749" lon="2.54698">
        <ele>88</ele>
        <time>2018-02-18T15:01:24Z</time>
      </trkpt>
      <trkpt lat="48.37493" lon="2.54708">
        <ele>88</ele>
        <time>2018-02-18T15:01:41Z</time>
      </trkpt>
      <trkpt lat="48.37493" lon="2.54725">
        <ele>88</ele>
        <time>2018-02-18T15:01:56Z</time>
      </trkpt>
      <trkpt lat="48.37493" lon="2.54746">
        <ele>87</ele>
        <time>2018-02-18T15:02:13Z</time>
      </trkpt>
      <trkpt lat="48.37495" lon="2.54766">
        <ele>88</ele>
        <time>2018-02-18T15:02:30Z</time>
      </trkpt>
      <trkpt lat="48.37498" lon="2.54786">
        <ele>88</ele>
        <time>2018-02-18T15:02:45Z</time>
      </trkpt>
      <trkpt lat="48.375" lon="2.54803">
        <ele>88</ele>
        <time>2018-02-18T15:03:01Z</time>
      </trkpt>
      <trkpt lat="48.37502" lon="2.5481">
        <ele>89</ele>
        <time>2018-02-18T15:03:16Z</time>
      </trkpt>
      <trkpt lat="48.37503" lon="2.54823">
        <ele>87</ele>
        <time>2018-02-18T15:03:31Z</time>
      </trkpt>
      <trkpt lat="48.37504" lon="2.54837">
        <ele>86</ele>
        <time>2018-02-18T15:03:48Z</time>
      </trkpt>
      <trkpt lat="48.37505" lon="2.54845">
        <ele>87</ele>
        <time>2018-02-18T15:04:05Z</time>
      </trkpt>
      <trkpt lat="48.37505" lon="2.5485">
        <ele>88</ele>
        <time>2018-02-18T15:04:22Z</time>
      </trkpt>
      <trkpt lat="48.37504" lon="2.54854">
        <ele>88</ele>
        <time>2018-02-18T15:04:40Z</time>
      </trkpt>
      <trkpt lat="48.37503" lon="2.54855">
        <ele>88</ele>
        <time>2018-02-18T15:05:10Z</time>
      </trkpt>
      <trkpt lat="48.37502" lon="2.54858">
        <ele>89</ele>
        <time>2018-02-18T15:05:40Z</time>
      </trkpt>
      <trkpt lat="48.37498" lon="2.54862">
        <ele>89</ele>
        <time>2018-02-18T15:06:03Z</time>
      </trkpt>
      <trkpt lat="48.375" lon="2.54859">
        <ele>89</ele>
        <time>2018-02-18T15:06:21Z</time>
      </trkpt>
      <trkpt lat="48.37506" lon="2.54856">
        <ele>89</ele>
        <time>2018-02-18T15:06:50Z</time>
      </trkpt>
      <trkpt lat="48.37506" lon="2.54856">
        <ele>89</ele>
        <time>2018-02-18T15:07:07Z</time>
      </trkpt>
      <trkpt lat="48.37508" lon="2.54854">
        <ele>89</ele>
        <time>2018-02-18T15:07:37Z</time>
      </trkpt>
      <trkpt lat="48.37506" lon="2.54853">
        <ele>88</ele>
        <time>2018-02-18T15:07:55Z</time>
      </trkpt>
      <trkpt lat="48.37506" lon="2.54855">
        <ele>89</ele>
        <time>2018-02-18T15:08:25Z</time>
      </trkpt>
      <trkpt lat="48.37506" lon="2.54869">
        <ele>89</ele>
        <time>2018-02-18T15:08:41Z</time>
      </trkpt>
      <trkpt lat="48.37501" lon="2.54883">
        <ele>89</ele>
        <time>2018-02-18T15:08:56Z</time>
      </trkpt>
      <trkpt lat="48.37499" lon="2.54897">
        <ele>89</ele>
        <time>2018-02-18T15:09:11Z</time>
      </trkpt>
      <trkpt lat="48.37496" lon="2.5492">
        <ele>88</ele>
        <time>2018-02-18T15:09:30Z</time>
      </trkpt>
      <trkpt lat="48.37497" lon="2.54942">
        <ele>90</ele>
        <time>2018-02-18T15:09:46Z</time>
      </trkpt>
      <trkpt lat="48.37497" lon="2.5496">
        <ele>91</ele>
        <time>2018-02-18T15:10:01Z</time>
      </trkpt>
      <trkpt lat="48.37492" lon="2.54975">
        <ele>91</ele>
        <time>2018-02-18T15:10:14Z</time>
      </trkpt>
      <trkpt lat="48.37491" lon="2.54991">
        <ele>90</ele>
        <time>2018-02-18T15:10:31Z</time>
      </trkpt>
      <trkpt lat="48.3749" lon="2.55006">
        <ele>90</ele>
        <time>2018-02-18T15:10:46Z</time>
      </trkpt>
      <trkpt lat="48.37488" lon="2.55012">
        <ele>91</ele>
        <time>2018-02-18T15:10:58Z</time>
      </trkpt>
      <trkpt lat="48.37479" lon="2.5502">
        <ele>91</ele>
        <time>2018-02-18T15:11:11Z</time>
      </trkpt>
      <trkpt lat="48.37467" lon="2.5503">
        <ele>92</ele>
        <time>2018-02-18T15:11:28Z</time>
      </trkpt>
      <trkpt lat="48.37458" lon="2.55037">
        <ele>92</ele>
        <time>2018-02-18T15:11:44Z</time>
      </trkpt>
      <trkpt lat="48.3745" lon="2.55041">
        <ele>92</ele>
        <time>2018-02-18T15:11:59Z</time>
      </trkpt>
      <trkpt lat="48.37442" lon="2.55047">
        <ele>92</ele>
        <time>2018-02-18T15:12:12Z</time>
      </trkpt>
      <trkpt lat="48.37432" lon="2.55061">
        <ele>92</ele>
        <time>2018-02-18T15:12:26Z</time>
      </trkpt>
      <trkpt lat="48.37425" lon="2.55073">
        <ele>93</ele>
        <time>2018-02-18T15:12:42Z</time>
      </trkpt>
      <trkpt lat="48.37417" lon="2.55085">
        <ele>93</ele>
        <time>2018-02-18T15:12:56Z</time>
      </trkpt>
      <trkpt lat="48.37409" lon="2.55098">
        <ele>96</ele>
        <time>2018-02-18T15:13:11Z</time>
      </trkpt>
      <trkpt lat="48.37401" lon="2.55112">
        <ele>97</ele>
        <time>2018-02-18T15:13:26Z</time>
      </trkpt>
      <trkpt lat="48.37394" lon="2.55127">
        <ele>98</ele>
        <time>2018-02-18T15:13:43Z</time>
      </trkpt>
      <trkpt lat="48.37389" lon="2.55144">
        <ele>98</ele>
        <time>2018-02-18T15:14:00Z</time>
      </trkpt>
      <trkpt lat="48.37385" lon="2.55158">
        <ele>98</ele>
        <time>2018-02-18T15:14:13Z</time>
      </trkpt>
      <trkpt lat="48.37382" lon="2.55181">
        <ele>99</ele>
        <time>2018-02-18T15:14:28Z</time>
      </trkpt>
      <trkpt lat="48.37386" lon="2.55194">
        <ele>99</ele>
        <time>2018-02-18T15:14:44Z</time>
      </trkpt>
      <trkpt lat="48.37394" lon="2.5521">
        <ele>99</ele>
        <time>2018-02-18T15:14:58Z</time>
      </trkpt>
      <trkpt lat="48.37397" lon="2.55234">
        <ele>99</ele>
        <time>2018-02-18T15:15:15Z</time>
      </trkpt>
      <trkpt lat="48.37393" lon="2.5526">
        <ele>99</ele>
        <time>2018-02-18T15:15:32Z</time>
      </trkpt>
      <trkpt lat="48.37384" lon="2.55277">
        <ele>99</ele>
        <time>2018-02-18T15:15:49Z</time>
      </trkpt>
      <trkpt lat="48.37375" lon="2.55285">
        <ele>100</ele>
        <time>2018-02-18T15:16:02Z</time>
      </trkpt>
      <trkpt lat="48.37365" lon="2.55293">
        <ele>100</ele>
        <time>2018-02-18T15:16:17Z</time>
      </trkpt>
      <trkpt lat="48.37357" lon="2.55305">
        <ele>100</ele>
        <time>2018-02-18T15:16:34Z</time>
      </trkpt>
      <trkpt lat="48.37345" lon="2.55318">
        <ele>100</ele>
        <time>2018-02-18T15:16:52Z</time>
      </trkpt>
      <trkpt lat="48.37333" lon="2.55321">
        <ele>102</ele>
        <time>2018-02-18T15:17:09Z</time>
      </trkpt>
      <trkpt lat="48.37323" lon="2.55323">
        <ele>103</ele>
        <time>2018-02-18T15:17:26Z</time>
      </trkpt>
      <trkpt lat="48.37314" lon="2.55341">
        <ele>103</ele>
        <time>2018-02-18T15:17:44Z</time>
      </trkpt>
      <trkpt lat="48.37309" lon="2.55361">
        <ele>103</ele>
        <time>2018-02-18T15:18:00Z</time>
      </trkpt>
      <trkpt lat="48.37305" lon="2.55378">
        <ele>104</ele>
        <time>2018-02-18T15:18:16Z</time>
      </trkpt>
      <trkpt lat="48.37302" lon="2.55387">
        <ele>104</ele>
        <time>2018-02-18T15:18:29Z</time>
      </trkpt>
      <trkpt lat="48.37294" lon="2.55407">
        <ele>104</ele>
        <time>2018-02-18T15:18:43Z</time>
      </trkpt>
      <trkpt lat="48.37284" lon="2.55425">
        <ele>105</ele>
        <time>2018-02-18T15:19:00Z</time>
      </trkpt>
      <trkpt lat="48.37274" lon="2.55439">
        <ele>106</ele>
        <time>2018-02-18T15:19:16Z</time>
      </trkpt>
      <trkpt lat="48.37266" lon="2.55456">
        <ele>106</ele>
        <time>2018-02-18T15:19:30Z</time>
      </trkpt>
      <trkpt lat="48.37259" lon="2.55474">
        <ele>106</ele>
        <time>2018-02-18T15:19:44Z</time>
      </trkpt>
      <trkpt lat="48.37254" lon="2.55505">
        <ele>106</ele>
        <time>2018-02-18T15:20:04Z</time>
      </trkpt>
      <trkpt lat="48.37248" lon="2.55525">
        <ele>108</ele>
        <time>2018-02-18T15:20:21Z</time>
      </trkpt>
      <trkpt lat="48.37244" lon="2.55557">
        <ele>109</ele>
        <time>2018-02-18T15:20:37Z</time>
      </trkpt>
      <trkpt lat="48.37242" lon="2.55572">
        <ele>108</ele>
        <time>2018-02-18T15:20:51Z</time>
      </trkpt>
      <trkpt lat="48.37239" lon="2.5559">
        <ele>108</ele>
        <time>2018-02-18T15:21:08Z</time>
      </trkpt>
      <trkpt lat="48.37237" lon="2.55609">
        <ele>109</ele>
        <time>2018-02-18T15:21:22Z</time>
      </trkpt>
      <trkpt lat="48.37231" lon="2.55627">
        <ele>110</ele>
        <time>2018-02-18T15:21:34Z</time>
      </trkpt>
      <trkpt lat="48.37222" lon="2.55642">
        <ele>110</ele>
        <time>2018-02-18T15:21:50Z</time>
      </trkpt>
      <trkpt lat="48.37211" lon="2.55663">
        <ele>110</ele>
        <time>2018-02-18T15:22:05Z</time>
      </trkpt>
      <trkpt lat="48.372" lon="2.55682">
        <ele>111</ele>
        <time>2018-02-18T15:22:23Z</time>
      </trkpt>
      <trkpt lat="48.37195" lon="2.55686">
        <ele>111</ele>
        <time>2018-02-18T15:22:36Z</time>
      </trkpt>
      <trkpt lat="48.37187" lon="2.55696">
        <ele>111</ele>
        <time>2018-02-18T15:22:51Z</time>
      </trkpt>
      <trkpt lat="48.37172" lon="2.5571">
        <ele>112</ele>
        <time>2018-02-18T15:23:05Z</time>
      </trkpt>
      <trkpt lat="48.3716" lon="2.5573">
        <ele>116</ele>
        <time>2018-02-18T15:23:21Z</time>
      </trkpt>
      <trkpt lat="48.37151" lon="2.55742">
        <ele>116</ele>
        <time>2018-02-18T15:23:36Z</time>
      </trkpt>
      <trkpt lat="48.37145" lon="2.55753">
        <ele>117</ele>
        <time>2018-02-18T15:23:50Z</time>
      </trkpt>
      <trkpt lat="48.37137" lon="2.55764">
        <ele>118</ele>
        <time>2018-02-18T15:24:03Z</time>
      </trkpt>
      <trkpt lat="48.37133" lon="2.55768">
        <ele>119</ele>
        <time>2018-02-18T15:24:08Z</time>
      </trkpt>
      <trkpt lat="48.37122" lon="2.55777">
        <ele>119</ele>
        <time>2018-02-18T15:24:20Z</time>
      </trkpt>
      <trkpt lat="48.37105" lon="2.55795">
        <ele>120</ele>
        <time>2018-02-18T15:24:37Z</time>
      </trkpt>
      <trkpt lat="48.37095" lon="2.55809">
        <ele>120</ele>
        <time>2018-02-18T15:24:53Z</time>
      </trkpt>
      <trkpt lat="48.3708" lon="2.55822">
        <ele>123</ele>
        <time>2018-02-18T15:25:08Z</time>
      </trkpt>
      <trkpt lat="48.37072" lon="2.55834">
        <ele>122</ele>
        <time>2018-02-18T15:25:22Z</time>
      </trkpt>
      <trkpt lat="48.37064" lon="2.55843">
        <ele>122</ele>
        <time>2018-02-18T15:25:35Z</time>
      </trkpt>
      <trkpt lat="48.37055" lon="2.5587">
        <ele>123</ele>
        <time>2018-02-18T15:25:49Z</time>
      </trkpt>
      <trkpt lat="48.37046" lon="2.55887">
        <ele>123</ele>
        <time>2018-02-18T15:26:06Z</time>
      </trkpt>
      <trkpt lat="48.37036" lon="2.55898">
        <ele>123</ele>
        <time>2018-02-18T15:26:22Z</time>
      </trkpt>
      <trkpt lat="48.37027" lon="2.55917">
        <ele>123</ele>
        <time>2018-02-18T15:26:40Z</time>
      </trkpt>
      <trkpt lat="48.3702" lon="2.5593">
        <ele>123</ele>
        <time>2018-02-18T15:26:53Z</time>
      </trkpt>
      <trkpt lat="48.3701" lon="2.55949">
        <ele>123</ele>
        <time>2018-02-18T15:27:09Z</time>
      </trkpt>
      <trkpt lat="48.37003" lon="2.55966">
        <ele>123</ele>
        <time>2018-02-18T15:27:25Z</time>
      </trkpt>
      <trkpt lat="48.36999" lon="2.55986">
        <ele>124</ele>
        <time>2018-02-18T15:27:39Z</time>
      </trkpt>
      <trkpt lat="48.36994" lon="2.56003">
        <ele>123</ele>
        <time>2018-02-18T15:27:54Z</time>
      </trkpt>
      <trkpt lat="48.3699" lon="2.56024">
        <ele>124</ele>
        <time>2018-02-18T15:28:09Z</time>
      </trkpt>
      <trkpt lat="48.36985" lon="2.56053">
        <ele>124</ele>
        <time>2018-02-18T15:28:25Z</time>
      </trkpt>
      <trkpt lat="48.36981" lon="2.56069">
        <ele>123</ele>
        <time>2018-02-18T15:28:45Z</time>
      </trkpt>
      <trkpt lat="48.36978" lon="2.56079">
        <ele>123</ele>
        <time>2018-02-18T15:28:58Z</time>
      </trkpt>
      <trkpt lat="48.36981" lon="2.56086">
        <ele>123</ele>
        <time>2018-02-18T15:29:15Z</time>
      </trkpt>
      <trkpt lat="48.36981" lon="2.56096">
        <ele>123</ele>
        <time>2018-02-18T15:29:32Z</time>
      </trkpt>
      <trkpt lat="48.36985" lon="2.56109">
        <ele>123</ele>
        <time>2018-02-18T15:29:44Z</time>
      </trkpt>
      <trkpt lat="48.36996" lon="2.5612">
        <ele>123</ele>
        <time>2018-02-18T15:30:00Z</time>
      </trkpt>
      <trkpt lat="48.37002" lon="2.56132">
        <ele>122</ele>
        <time>2018-02-18T15:30:15Z</time>
      </trkpt>
      <trkpt lat="48.37007" lon="2.56138">
        <ele>122</ele>
        <time>2018-02-18T15:30:28Z</time>
      </trkpt>
      <trkpt lat="48.37011" lon="2.5614">
        <ele>122</ele>
        <time>2018-02-18T15:30:47Z</time>
      </trkpt>
    </trkseg>
  </trk>
</gpx>